sensor_id;sensor_type;location;lat;lon;timestamp;P1;durP1;ratioP1;P2;durP2;ratioP2
5555;SDS011;2801;50.972;7.856;2023-02-28T00:01:29;4.83;;;2.43;;
5555;SDS011;2801;50.972;7.856;2023-02-28T00:03:57;2.83;;;2.00;;
5555;SDS011;2801;50.972;7.856;2023-02-28T00:06:24;3.83;;;2.10;;
5555;SDS011;2801;50.972;7.856;2023-02-28T00:08:52;2.83;;;2.03;;
5555;SDS011;2801;50.972;7.856;2023-02-28T00:11:19;3.17;;;1.77;;
5555;SDS011;2801;50.972;7.856;2023-02-28T00:13:46;3.90;;;2.20;;
5555;SDS011;2801;50.972;7.856;2023-02-28T00:16:18;2.70;;;1.63;;
5555;SDS011;2801;50.972;7.856;2023-02-28T00:18:47;3.97;;;2.00;;
5555;SDS011;2801;50.972;7.856;2023-02-28T00:21:17;4.60;;;2.47;;
5555;SDS011;2801;50.972;7.856;2023-02-28T00:23:45;4.27;;;2.23;;
5555;SDS011;2801;50.972;7.856;2023-02-28T00:26:13;3.60;;;2.30;;
5555;SDS011;2801;50.972;7.856;2023-02-28T00:28:40;6.17;;;2.27;;
5555;SDS011;2801;50.972;7.856;2023-02-28T00:31:07;3.73;;;2.23;;
5555;SDS011;2801;50.972;7.856;2023-02-28T00:33:34;4.23;;;2.27;;
5555;SDS011;2801;50.972;7.856;2023-02-28T00:36:02;3.10;;;2.13;;
5555;SDS011;2801;50.972;7.856;2023-02-28T00:38:36;4.13;;;2.30;;
5555;SDS011;2801;50.972;7.856;2023-02-28T00:41:04;3.70;;;2.40;;
5555;SDS011;2801;50.972;7.856;2023-02-28T00:43:32;4.13;;;2.50;;
5555;SDS011;2801;50.972;7.856;2023-02-28T00:46:01;4.80;;;2.90;;
5555;SDS011;2801;50.972;7.856;2023-02-28T00:48:29;3.40;;;2.00;;
5555;SDS011;2801;50.972;7.856;2023-02-28T00:50:56;6.27;;;2.30;;
5555;SDS011;2801;50.972;7.856;2023-02-28T00:53:23;5.70;;;2.80;;
5555;SDS011;2801;50.972;7.856;2023-02-28T00:55:50;6.63;;;2.90;;
5555;SDS011;2801;50.972;7.856;2023-02-28T00:58:17;5.00;;;2.70;;
5555;SDS011;2801;50.972;7.856;2023-02-28T01:00:44;5.70;;;2.70;;
5555;SDS011;2801;50.972;7.856;2023-02-28T01:03:15;5.20;;;3.07;;
5555;SDS011;2801;50.972;7.856;2023-02-28T01:05:44;5.37;;;2.70;;
5555;SDS011;2801;50.972;7.856;2023-02-28T01:08:12;4.10;;;2.73;;
5555;SDS011;2801;50.972;7.856;2023-02-28T01:10:40;5.80;;;2.80;;
5555;SDS011;2801;50.972;7.856;2023-02-28T01:13:07;7.70;;;3.57;;
5555;SDS011;2801;50.972;7.856;2023-02-28T01:15:34;8.57;;;3.73;;
5555;SDS011;2801;50.972;7.856;2023-02-28T01:18:01;8.10;;;3.73;;
5555;SDS011;2801;50.972;7.856;2023-02-28T01:20:28;7.40;;;3.40;;
5555;SDS011;2801;50.972;7.856;2023-02-28T01:22:55;6.47;;;3.67;;
5555;SDS011;2801;50.972;7.856;2023-02-28T01:25:22;5.27;;;3.17;;
5555;SDS011;2801;50.972;7.856;2023-02-28T01:27:49;7.90;;;3.27;;
5555;SDS011;2801;50.972;7.856;2023-02-28T01:30:15;5.77;;;3.00;;
5555;SDS011;2801;50.972;7.856;2023-02-28T01:32:42;5.33;;;3.13;;
5555;SDS011;2801;50.972;7.856;2023-02-28T01:35:09;6.03;;;2.73;;
5555;SDS011;2801;50.972;7.856;2023-02-28T01:37:36;5.13;;;3.33;;
5555;SDS011;2801;50.972;7.856;2023-02-28T01:40:03;6.00;;;3.33;;
5555;SDS011;2801;50.972;7.856;2023-02-28T01:42:31;4.40;;;2.63;;
5555;SDS011;2801;50.972;7.856;2023-02-28T01:47:34;3.50;;;2.17;;
5555;SDS011;2801;50.972;7.856;2023-02-28T01:50:09;6.10;;;2.43;;
5555;SDS011;2801;50.972;7.856;2023-02-28T01:52:44;4.47;;;2.53;;
5555;SDS011;2801;50.972;7.856;2023-02-28T01:55:14;4.67;;;2.73;;
5555;SDS011;2801;50.972;7.856;2023-02-28T01:57:48;5.47;;;2.87;;
5555;SDS011;2801;50.972;7.856;2023-02-28T02:00:21;5.07;;;2.80;;
5555;SDS011;2801;50.972;7.856;2023-02-28T02:02:53;6.03;;;2.83;;
5555;SDS011;2801;50.972;7.856;2023-02-28T02:05:26;3.63;;;2.60;;
5555;SDS011;2801;50.972;7.856;2023-02-28T02:07:58;4.17;;;2.53;;
5555;SDS011;2801;50.972;7.856;2023-02-28T02:10:41;2.80;;;2.47;;
5555;SDS011;2801;50.972;7.856;2023-02-28T02:18:57;5.13;;;2.33;;
5555;SDS011;2801;50.972;7.856;2023-02-28T02:22:03;3.17;;;2.23;;
5555;SDS011;2801;50.972;7.856;2023-02-28T02:25:04;3.33;;;2.60;;
5555;SDS011;2801;50.972;7.856;2023-02-28T02:37:08;7.40;;;2.67;;
5555;SDS011;2801;50.972;7.856;2023-02-28T02:39:53;3.70;;;2.27;;
5555;SDS011;2801;50.972;7.856;2023-02-28T02:42:36;4.70;;;2.80;;
5555;SDS011;2801;50.972;7.856;2023-02-28T02:45:36;3.23;;;2.33;;
5555;SDS011;2801;50.972;7.856;2023-02-28T02:48:11;5.23;;;2.70;;
5555;SDS011;2801;50.972;7.856;2023-02-28T02:50:45;6.67;;;2.67;;
5555;SDS011;2801;50.972;7.856;2023-02-28T02:53:18;5.10;;;2.27;;
5555;SDS011;2801;50.972;7.856;2023-02-28T02:55:52;5.07;;;2.83;;
5555;SDS011;2801;50.972;7.856;2023-02-28T02:58:28;1.90;;;1.73;;
5555;SDS011;2801;50.972;7.856;2023-02-28T03:01:01;3.40;;;1.90;;
5555;SDS011;2801;50.972;7.856;2023-02-28T03:03:30;1.77;;;1.67;;
5555;SDS011;2801;50.972;7.856;2023-02-28T03:06:00;2.53;;;1.83;;
5555;SDS011;2801;50.972;7.856;2023-02-28T03:08:29;5.13;;;2.60;;
5555;SDS011;2801;50.972;7.856;2023-02-28T03:11:03;1.83;;;1.73;;
5555;SDS011;2801;50.972;7.856;2023-02-28T03:24:27;2.30;;;1.90;;
5555;SDS011;2801;50.972;7.856;2023-02-28T03:27:23;3.13;;;2.40;;
5555;SDS011;2801;50.972;7.856;2023-02-28T03:29:59;3.07;;;2.20;;
5555;SDS011;2801;50.972;7.856;2023-02-28T03:32:40;3.40;;;2.27;;
5555;SDS011;2801;50.972;7.856;2023-02-28T03:35:21;4.43;;;2.37;;
5555;SDS011;2801;50.972;7.856;2023-02-28T03:38:00;5.10;;;2.67;;
5555;SDS011;2801;50.972;7.856;2023-02-28T03:40:35;4.73;;;2.60;;
5555;SDS011;2801;50.972;7.856;2023-02-28T03:43:08;3.33;;;2.90;;
5555;SDS011;2801;50.972;7.856;2023-02-28T03:45:41;2.07;;;1.87;;
5555;SDS011;2801;50.972;7.856;2023-02-28T03:48:15;5.80;;;2.70;;
5555;SDS011;2801;50.972;7.856;2023-02-28T03:50:52;4.13;;;2.77;;
5555;SDS011;2801;50.972;7.856;2023-02-28T03:53:34;2.97;;;2.30;;
5555;SDS011;2801;50.972;7.856;2023-02-28T03:56:09;4.90;;;2.50;;
5555;SDS011;2801;50.972;7.856;2023-02-28T04:01:33;2.93;;;2.20;;
5555;SDS011;2801;50.972;7.856;2023-02-28T04:04:09;2.23;;;1.70;;
5555;SDS011;2801;50.972;7.856;2023-02-28T04:06:37;2.70;;;2.30;;
5555;SDS011;2801;50.972;7.856;2023-02-28T04:09:06;3.70;;;2.20;;
5555;SDS011;2801;50.972;7.856;2023-02-28T04:11:36;3.40;;;2.73;;
5555;SDS011;2801;50.972;7.856;2023-02-28T04:14:09;3.07;;;2.63;;
5555;SDS011;2801;50.972;7.856;2023-02-28T04:16:39;3.80;;;2.63;;
5555;SDS011;2801;50.972;7.856;2023-02-28T04:19:09;3.60;;;2.90;;
5555;SDS011;2801;50.972;7.856;2023-02-28T04:21:39;4.50;;;2.67;;
5555;SDS011;2801;50.972;7.856;2023-02-28T04:24:10;5.63;;;2.20;;
5555;SDS011;2801;50.972;7.856;2023-02-28T04:26:44;3.07;;;2.23;;
5555;SDS011;2801;50.972;7.856;2023-02-28T04:29:17;2.43;;;2.23;;
5555;SDS011;2801;50.972;7.856;2023-02-28T04:31:47;2.47;;;1.90;;
5555;SDS011;2801;50.972;7.856;2023-02-28T04:34:14;4.70;;;2.93;;
5555;SDS011;2801;50.972;7.856;2023-02-28T04:36:41;4.10;;;3.10;;
5555;SDS011;2801;50.972;7.856;2023-02-28T04:39:08;5.83;;;3.47;;
5555;SDS011;2801;50.972;7.856;2023-02-28T04:41:35;5.50;;;3.23;;
5555;SDS011;2801;50.972;7.856;2023-02-28T04:44:02;5.03;;;3.40;;
5555;SDS011;2801;50.972;7.856;2023-02-28T04:46:29;6.10;;;3.20;;
5555;SDS011;2801;50.972;7.856;2023-02-28T04:48:56;6.13;;;3.50;;
5555;SDS011;2801;50.972;7.856;2023-02-28T04:51:25;7.27;;;3.73;;
5555;SDS011;2801;50.972;7.856;2023-02-28T04:53:52;3.87;;;2.90;;
5555;SDS011;2801;50.972;7.856;2023-02-28T04:56:19;5.50;;;3.20;;
5555;SDS011;2801;50.972;7.856;2023-02-28T04:58:46;4.03;;;3.23;;
5555;SDS011;2801;50.972;7.856;2023-02-28T05:01:18;5.27;;;3.53;;
5555;SDS011;2801;50.972;7.856;2023-02-28T05:03:50;9.57;;;5.40;;
5555;SDS011;2801;50.972;7.856;2023-02-28T05:06:19;5.60;;;3.67;;
5555;SDS011;2801;50.972;7.856;2023-02-28T05:08:47;7.70;;;3.30;;
5555;SDS011;2801;50.972;7.856;2023-02-28T05:13:50;5.87;;;3.50;;
5555;SDS011;2801;50.972;7.856;2023-02-28T05:16:19;4.27;;;3.17;;
5555;SDS011;2801;50.972;7.856;2023-02-28T05:18:47;5.20;;;3.30;;
5555;SDS011;2801;50.972;7.856;2023-02-28T05:24:03;6.07;;;3.13;;
5555;SDS011;2801;50.972;7.856;2023-02-28T05:26:34;4.77;;;3.33;;
5555;SDS011;2801;50.972;7.856;2023-02-28T05:29:03;4.13;;;3.20;;
5555;SDS011;2801;50.972;7.856;2023-02-28T05:31:31;5.43;;;3.37;;
5555;SDS011;2801;50.972;7.856;2023-02-28T05:33:59;5.73;;;3.50;;
5555;SDS011;2801;50.972;7.856;2023-02-28T05:36:26;7.60;;;3.80;;
5555;SDS011;2801;50.972;7.856;2023-02-28T05:38:53;6.30;;;3.03;;
5555;SDS011;2801;50.972;7.856;2023-02-28T05:41:20;4.33;;;3.27;;
5555;SDS011;2801;50.972;7.856;2023-02-28T05:43:47;4.73;;;3.13;;
5555;SDS011;2801;50.972;7.856;2023-02-28T05:46:15;4.97;;;3.33;;
5555;SDS011;2801;50.972;7.856;2023-02-28T05:48:42;4.77;;;3.33;;
5555;SDS011;2801;50.972;7.856;2023-02-28T05:51:14;4.73;;;3.20;;
5555;SDS011;2801;50.972;7.856;2023-02-28T05:53:41;4.90;;;2.90;;
5555;SDS011;2801;50.972;7.856;2023-02-28T05:56:08;6.20;;;3.13;;
5555;SDS011;2801;50.972;7.856;2023-02-28T05:58:35;4.03;;;2.93;;
5555;SDS011;2801;50.972;7.856;2023-02-28T06:01:18;4.97;;;3.40;;
5555;SDS011;2801;50.972;7.856;2023-02-28T06:04:01;11.50;;;5.17;;
5555;SDS011;2801;50.972;7.856;2023-02-28T06:06:30;18.87;;;8.20;;
5555;SDS011;2801;50.972;7.856;2023-02-28T06:08:58;9.40;;;5.47;;
5555;SDS011;2801;50.972;7.856;2023-02-28T06:11:27;8.57;;;4.83;;
5555;SDS011;2801;50.972;7.856;2023-02-28T06:13:58;4.33;;;3.10;;
5555;SDS011;2801;50.972;7.856;2023-02-28T06:16:27;5.83;;;3.70;;
5555;SDS011;2801;50.972;7.856;2023-02-28T06:19:00;4.03;;;3.07;;
5555;SDS011;2801;50.972;7.856;2023-02-28T06:21:29;4.10;;;2.60;;
5555;SDS011;2801;50.972;7.856;2023-02-28T06:23:57;3.57;;;2.90;;
5555;SDS011;2801;50.972;7.856;2023-02-28T06:26:25;7.53;;;2.87;;
5555;SDS011;2801;50.972;7.856;2023-02-28T06:28:52;7.33;;;3.57;;
5555;SDS011;2801;50.972;7.856;2023-02-28T06:31:20;8.03;;;3.67;;
5555;SDS011;2801;50.972;7.856;2023-02-28T06:33:48;7.03;;;3.73;;
5555;SDS011;2801;50.972;7.856;2023-02-28T06:36:15;5.23;;;3.77;;
5555;SDS011;2801;50.972;7.856;2023-02-28T06:38:43;7.17;;;3.73;;
5555;SDS011;2801;50.972;7.856;2023-02-28T06:41:11;5.40;;;3.57;;
5555;SDS011;2801;50.972;7.856;2023-02-28T06:43:39;9.20;;;4.43;;
5555;SDS011;2801;50.972;7.856;2023-02-28T06:46:08;6.17;;;2.83;;
5555;SDS011;2801;50.972;7.856;2023-02-28T06:48:40;4.57;;;3.17;;
5555;SDS011;2801;50.972;7.856;2023-02-28T06:51:13;9.27;;;3.43;;
5555;SDS011;2801;50.972;7.856;2023-02-28T06:53:46;8.33;;;3.47;;
5555;SDS011;2801;50.972;7.856;2023-02-28T06:56:14;3.37;;;2.63;;
5555;SDS011;2801;50.972;7.856;2023-02-28T06:58:45;5.87;;;2.83;;
5555;SDS011;2801;50.972;7.856;2023-02-28T07:01:14;3.70;;;2.53;;
5555;SDS011;2801;50.972;7.856;2023-02-28T07:03:41;6.57;;;2.37;;
5555;SDS011;2801;50.972;7.856;2023-02-28T07:06:08;4.10;;;3.03;;
5555;SDS011;2801;50.972;7.856;2023-02-28T07:08:35;6.17;;;1.60;;
5555;SDS011;2801;50.972;7.856;2023-02-28T07:11:03;3.17;;;2.87;;
5555;SDS011;2801;50.972;7.856;2023-02-28T07:13:30;4.50;;;3.13;;
5555;SDS011;2801;50.972;7.856;2023-02-28T07:16:02;4.57;;;2.90;;
5555;SDS011;2801;50.972;7.856;2023-02-28T07:18:31;5.47;;;3.20;;
5555;SDS011;2801;50.972;7.856;2023-02-28T07:21:01;5.37;;;3.17;;
5555;SDS011;2801;50.972;7.856;2023-02-28T07:23:29;4.43;;;3.47;;
5555;SDS011;2801;50.972;7.856;2023-02-28T07:25:56;6.23;;;4.00;;
5555;SDS011;2801;50.972;7.856;2023-02-28T07:28:23;5.13;;;3.83;;
5555;SDS011;2801;50.972;7.856;2023-02-28T07:30:51;4.90;;;3.20;;
5555;SDS011;2801;50.972;7.856;2023-02-28T07:33:18;8.43;;;4.10;;
5555;SDS011;2801;50.972;7.856;2023-02-28T07:35:45;4.03;;;2.53;;
5555;SDS011;2801;50.972;7.856;2023-02-28T07:38:12;3.87;;;2.83;;
5555;SDS011;2801;50.972;7.856;2023-02-28T07:40:39;4.33;;;2.83;;
5555;SDS011;2801;50.972;7.856;2023-02-28T07:43:06;6.50;;;2.83;;
5555;SDS011;2801;50.972;7.856;2023-02-28T07:45:33;3.57;;;2.60;;
5555;SDS011;2801;50.972;7.856;2023-02-28T07:48:01;3.60;;;2.70;;
5555;SDS011;2801;50.972;7.856;2023-02-28T07:50:28;4.07;;;2.60;;
5555;SDS011;2801;50.972;7.856;2023-02-28T07:53:00;3.77;;;2.47;;
5555;SDS011;2801;50.972;7.856;2023-02-28T07:55:27;3.93;;;3.00;;
5555;SDS011;2801;50.972;7.856;2023-02-28T07:57:54;1.93;;;1.77;;
5555;SDS011;2801;50.972;7.856;2023-02-28T08:00:21;3.87;;;3.47;;
5555;SDS011;2801;50.972;7.856;2023-02-28T08:02:48;3.43;;;2.30;;
5555;SDS011;2801;50.972;7.856;2023-02-28T08:05:16;7.33;;;3.27;;
5555;SDS011;2801;50.972;7.856;2023-02-28T08:07:48;3.10;;;2.27;;
5555;SDS011;2801;50.972;7.856;2023-02-28T08:10:15;3.00;;;1.90;;
5555;SDS011;2801;50.972;7.856;2023-02-28T08:12:42;2.50;;;1.63;;
5555;SDS011;2801;50.972;7.856;2023-02-28T08:15:09;3.27;;;2.17;;
5555;SDS011;2801;50.972;7.856;2023-02-28T08:17:36;2.27;;;1.47;;
5555;SDS011;2801;50.972;7.856;2023-02-28T08:22:36;3.40;;;2.00;;
5555;SDS011;2801;50.972;7.856;2023-02-28T08:25:03;4.00;;;2.40;;
5555;SDS011;2801;50.972;7.856;2023-02-28T08:27:30;4.63;;;1.70;;
5555;SDS011;2801;50.972;7.856;2023-02-28T08:29:57;2.50;;;2.20;;
5555;SDS011;2801;50.972;7.856;2023-02-28T08:32:24;1.70;;;1.47;;
5555;SDS011;2801;50.972;7.856;2023-02-28T08:34:55;1.57;;;0.93;;
5555;SDS011;2801;50.972;7.856;2023-02-28T08:37:23;2.20;;;1.57;;
5555;SDS011;2801;50.972;7.856;2023-02-28T08:39:50;2.77;;;1.43;;
5555;SDS011;2801;50.972;7.856;2023-02-28T08:42:21;1.57;;;0.93;;
5555;SDS011;2801;50.972;7.856;2023-02-28T08:44:48;4.10;;;1.90;;
5555;SDS011;2801;50.972;7.856;2023-02-28T08:47:15;2.00;;;1.47;;
5555;SDS011;2801;50.972;7.856;2023-02-28T08:49:42;1.93;;;1.47;;
5555;SDS011;2801;50.972;7.856;2023-02-28T08:52:09;4.27;;;1.67;;
5555;SDS011;2801;50.972;7.856;2023-02-28T08:54:36;2.30;;;1.43;;
5555;SDS011;2801;50.972;7.856;2023-02-28T08:57:03;3.03;;;1.40;;
5555;SDS011;2801;50.972;7.856;2023-02-28T08:59:30;2.43;;;1.70;;
5555;SDS011;2801;50.972;7.856;2023-02-28T09:01:58;2.87;;;1.73;;
5555;SDS011;2801;50.972;7.856;2023-02-28T09:04:25;1.77;;;1.17;;
5555;SDS011;2801;50.972;7.856;2023-02-28T09:06:52;3.27;;;1.87;;
5555;SDS011;2801;50.972;7.856;2023-02-28T09:09:19;3.50;;;1.53;;
5555;SDS011;2801;50.972;7.856;2023-02-28T09:11:46;1.33;;;1.13;;
5555;SDS011;2801;50.972;7.856;2023-02-28T09:14:13;2.93;;;2.10;;
5555;SDS011;2801;50.972;7.856;2023-02-28T09:16:39;2.97;;;1.70;;
5555;SDS011;2801;50.972;7.856;2023-02-28T09:19:06;1.70;;;1.60;;
5555;SDS011;2801;50.972;7.856;2023-02-28T09:21:40;2.23;;;1.80;;
5555;SDS011;2801;50.972;7.856;2023-02-28T09:24:07;1.70;;;1.10;;
5555;SDS011;2801;50.972;7.856;2023-02-28T09:26:34;2.93;;;1.50;;
5555;SDS011;2801;50.972;7.856;2023-02-28T09:29:12;3.90;;;1.43;;
5555;SDS011;2801;50.972;7.856;2023-02-28T09:31:40;1.53;;;1.13;;
5555;SDS011;2801;50.972;7.856;2023-02-28T09:34:07;2.93;;;2.03;;
5555;SDS011;2801;50.972;7.856;2023-02-28T09:36:34;3.87;;;2.40;;
5555;SDS011;2801;50.972;7.856;2023-02-28T09:39:11;2.13;;;1.43;;
5555;SDS011;2801;50.972;7.856;2023-02-28T09:41:42;2.60;;;1.90;;
5555;SDS011;2801;50.972;7.856;2023-02-28T09:44:22;1.57;;;1.17;;
5555;SDS011;2801;50.972;7.856;2023-02-28T09:47:10;2.40;;;1.60;;
5555;SDS011;2801;50.972;7.856;2023-02-28T09:49:55;3.40;;;1.50;;
5555;SDS011;2801;50.972;7.856;2023-02-28T09:52:29;2.90;;;1.83;;
5555;SDS011;2801;50.972;7.856;2023-02-28T09:55:12;1.93;;;1.37;;
5555;SDS011;2801;50.972;7.856;2023-02-28T09:57:54;3.27;;;1.53;;
5555;SDS011;2801;50.972;7.856;2023-02-28T10:00:36;3.80;;;1.83;;
5555;SDS011;2801;50.972;7.856;2023-02-28T10:03:13;1.43;;;1.10;;
5555;SDS011;2801;50.972;7.856;2023-02-28T10:06:32;2.33;;;1.50;;
5555;SDS011;2801;50.972;7.856;2023-02-28T10:09:03;4.77;;;2.30;;
5555;SDS011;2801;50.972;7.856;2023-02-28T10:11:39;1.97;;;1.47;;
5555;SDS011;2801;50.972;7.856;2023-02-28T10:14:12;2.43;;;1.50;;
5555;SDS011;2801;50.972;7.856;2023-02-28T10:17:11;1.83;;;1.63;;
5555;SDS011;2801;50.972;7.856;2023-02-28T10:19:46;1.57;;;1.30;;
5555;SDS011;2801;50.972;7.856;2023-02-28T10:22:17;4.13;;;2.60;;
5555;SDS011;2801;50.972;7.856;2023-02-28T10:24:51;2.70;;;2.10;;
5555;SDS011;2801;50.972;7.856;2023-02-28T10:27:23;4.53;;;2.10;;
5555;SDS011;2801;50.972;7.856;2023-02-28T10:29:56;2.80;;;2.03;;
5555;SDS011;2801;50.972;7.856;2023-02-28T10:32:27;7.10;;;1.80;;
5555;SDS011;2801;50.972;7.856;2023-02-28T10:37:46;3.10;;;1.50;;
5555;SDS011;2801;50.972;7.856;2023-02-28T10:43:03;2.93;;;2.30;;
5555;SDS011;2801;50.972;7.856;2023-02-28T10:45:39;2.07;;;1.77;;
5555;SDS011;2801;50.972;7.856;2023-02-28T10:56:03;2.67;;;1.80;;
5555;SDS011;2801;50.972;7.856;2023-02-28T11:04:19;4.60;;;2.50;;
5555;SDS011;2801;50.972;7.856;2023-02-28T11:06:59;3.80;;;2.57;;
5555;SDS011;2801;50.972;7.856;2023-02-28T11:10:18;3.33;;;1.90;;
5555;SDS011;2801;50.972;7.856;2023-02-28T11:12:47;3.63;;;2.50;;
5555;SDS011;2801;50.972;7.856;2023-02-28T11:17:54;4.87;;;3.13;;
5555;SDS011;2801;50.972;7.856;2023-02-28T11:20:27;3.63;;;2.60;;
5555;SDS011;2801;50.972;7.856;2023-02-28T11:22:58;3.43;;;1.90;;
5555;SDS011;2801;50.972;7.856;2023-02-28T11:25:31;4.27;;;3.13;;
5555;SDS011;2801;50.972;7.856;2023-02-28T11:28:02;4.67;;;1.80;;
5555;SDS011;2801;50.972;7.856;2023-02-28T11:30:37;4.10;;;2.70;;
5555;SDS011;2801;50.972;7.856;2023-02-28T11:33:27;5.10;;;3.60;;
5555;SDS011;2801;50.972;7.856;2023-02-28T11:36:11;5.77;;;3.37;;
5555;SDS011;2801;50.972;7.856;2023-02-28T11:38:46;5.20;;;3.80;;
5555;SDS011;2801;50.972;7.856;2023-02-28T11:41:22;5.40;;;2.63;;
5555;SDS011;2801;50.972;7.856;2023-02-28T11:44:18;6.60;;;3.10;;
5555;SDS011;2801;50.972;7.856;2023-02-28T11:46:53;3.83;;;2.33;;
5555;SDS011;2801;50.972;7.856;2023-02-28T11:52:53;3.17;;;1.77;;
5555;SDS011;2801;50.972;7.856;2023-02-28T11:55:33;3.57;;;2.40;;
5555;SDS011;2801;50.972;7.856;2023-02-28T12:01:15;3.23;;;1.80;;
5555;SDS011;2801;50.972;7.856;2023-02-28T12:13:02;2.90;;;2.27;;
5555;SDS011;2801;50.972;7.856;2023-02-28T12:24:11;4.57;;;2.43;;
5555;SDS011;2801;50.972;7.856;2023-02-28T12:27:05;4.30;;;3.20;;
5555;SDS011;2801;50.972;7.856;2023-02-28T12:29:42;3.27;;;2.10;;
5555;SDS011;2801;50.972;7.856;2023-02-28T12:32:30;4.87;;;3.03;;
5555;SDS011;2801;50.972;7.856;2023-02-28T12:40:13;4.27;;;2.83;;
5555;SDS011;2801;50.972;7.856;2023-02-28T12:42:51;6.13;;;3.40;;
5555;SDS011;2801;50.972;7.856;2023-02-28T12:45:27;2.87;;;2.00;;
5555;SDS011;2801;50.972;7.856;2023-02-28T12:48:09;7.27;;;2.87;;
5555;SDS011;2801;50.972;7.856;2023-02-28T12:50:45;6.17;;;3.00;;
5555;SDS011;2801;50.972;7.856;2023-02-28T12:53:31;3.93;;;2.70;;
5555;SDS011;2801;50.972;7.856;2023-02-28T12:56:21;3.97;;;1.70;;
5555;SDS011;2801;50.972;7.856;2023-02-28T12:59:56;6.50;;;2.73;;
5555;SDS011;2801;50.972;7.856;2023-02-28T13:05:39;6.17;;;3.40;;
5555;SDS011;2801;50.972;7.856;2023-02-28T13:09:13;6.43;;;3.90;;
5555;SDS011;2801;50.972;7.856;2023-02-28T13:11:49;3.77;;;2.37;;
5555;SDS011;2801;50.972;7.856;2023-02-28T13:19:46;4.37;;;2.37;;
5555;SDS011;2801;50.972;7.856;2023-02-28T13:24:52;6.00;;;3.60;;
5555;SDS011;2801;50.972;7.856;2023-02-28T13:29:50;3.73;;;2.50;;
5555;SDS011;2801;50.972;7.856;2023-02-28T13:32:20;4.50;;;2.30;;
5555;SDS011;2801;50.972;7.856;2023-02-28T13:39:56;4.60;;;3.13;;
5555;SDS011;2801;50.972;7.856;2023-02-28T13:47:28;8.27;;;3.60;;
5555;SDS011;2801;50.972;7.856;2023-02-28T13:59:18;6.93;;;2.20;;
5555;SDS011;2801;50.972;7.856;2023-02-28T14:04:59;5.50;;;3.63;;
5555;SDS011;2801;50.972;7.856;2023-02-28T14:07:33;4.60;;;3.30;;
5555;SDS011;2801;50.972;7.856;2023-02-28T14:10:21;6.27;;;3.13;;
5555;SDS011;2801;50.972;7.856;2023-02-28T14:13:11;2.80;;;1.87;;
5555;SDS011;2801;50.972;7.856;2023-02-28T14:15:59;4.00;;;3.20;;
5555;SDS011;2801;50.972;7.856;2023-02-28T14:18:32;3.23;;;1.90;;
5555;SDS011;2801;50.972;7.856;2023-02-28T14:24:21;7.23;;;4.00;;
5555;SDS011;2801;50.972;7.856;2023-02-28T14:27:53;9.00;;;4.57;;
5555;SDS011;2801;50.972;7.856;2023-02-28T14:38:31;5.03;;;3.07;;
5555;SDS011;2801;50.972;7.856;2023-02-28T14:41:14;6.67;;;3.67;;
5555;SDS011;2801;50.972;7.856;2023-02-28T14:43:56;3.90;;;2.67;;
5555;SDS011;2801;50.972;7.856;2023-02-28T14:46:32;1.80;;;1.10;;
5555;SDS011;2801;50.972;7.856;2023-02-28T14:49:05;4.43;;;3.13;;
5555;SDS011;2801;50.972;7.856;2023-02-28T14:51:41;5.07;;;3.13;;
5555;SDS011;2801;50.972;7.856;2023-02-28T14:54:12;1.77;;;1.43;;
5555;SDS011;2801;50.972;7.856;2023-02-28T14:56:50;4.17;;;2.63;;
5555;SDS011;2801;50.972;7.856;2023-02-28T14:59:24;4.90;;;3.03;;
5555;SDS011;2801;50.972;7.856;2023-02-28T15:02:14;7.67;;;3.50;;
5555;SDS011;2801;50.972;7.856;2023-02-28T15:07:45;5.30;;;3.50;;
5555;SDS011;2801;50.972;7.856;2023-02-28T15:10:18;6.83;;;2.97;;
5555;SDS011;2801;50.972;7.856;2023-02-28T15:12:54;3.63;;;2.43;;
5555;SDS011;2801;50.972;7.856;2023-02-28T15:18:05;2.83;;;1.80;;
5555;SDS011;2801;50.972;7.856;2023-02-28T15:20:42;4.67;;;3.30;;
5555;SDS011;2801;50.972;7.856;2023-02-28T15:23:10;4.37;;;2.93;;
5555;SDS011;2801;50.972;7.856;2023-02-28T15:25:38;5.93;;;3.63;;
5555;SDS011;2801;50.972;7.856;2023-02-28T15:28:10;7.53;;;3.63;;
5555;SDS011;2801;50.972;7.856;2023-02-28T15:30:57;7.23;;;4.00;;
5555;SDS011;2801;50.972;7.856;2023-02-28T15:33:51;6.53;;;3.43;;
5555;SDS011;2801;50.972;7.856;2023-02-28T15:36:21;4.30;;;3.03;;
5555;SDS011;2801;50.972;7.856;2023-02-28T15:38:54;4.50;;;3.30;;
5555;SDS011;2801;50.972;7.856;2023-02-28T15:41:36;4.27;;;3.23;;
5555;SDS011;2801;50.972;7.856;2023-02-28T15:47:04;8.53;;;4.30;;
5555;SDS011;2801;50.972;7.856;2023-02-28T15:52:29;6.90;;;3.40;;
5555;SDS011;2801;50.972;7.856;2023-02-28T15:55:14;9.90;;;3.17;;
5555;SDS011;2801;50.972;7.856;2023-02-28T15:57:53;4.23;;;2.90;;
5555;SDS011;2801;50.972;7.856;2023-02-28T16:00:25;4.63;;;3.73;;
5555;SDS011;2801;50.972;7.856;2023-02-28T16:02:55;5.77;;;3.60;;
5555;SDS011;2801;50.972;7.856;2023-02-28T16:05:23;6.30;;;3.87;;
5555;SDS011;2801;50.972;7.856;2023-02-28T16:08:06;5.53;;;2.53;;
5555;SDS011;2801;50.972;7.856;2023-02-28T16:10:41;5.60;;;3.03;;
5555;SDS011;2801;50.972;7.856;2023-02-28T16:13:08;4.50;;;3.57;;
5555;SDS011;2801;50.972;7.856;2023-02-28T16:15:41;6.57;;;3.80;;
5555;SDS011;2801;50.972;7.856;2023-02-28T16:18:10;5.87;;;3.40;;
5555;SDS011;2801;50.972;7.856;2023-02-28T16:20:38;6.53;;;3.60;;
5555;SDS011;2801;50.972;7.856;2023-02-28T16:23:06;4.77;;;2.93;;
5555;SDS011;2801;50.972;7.856;2023-02-28T16:25:41;5.67;;;3.07;;
5555;SDS011;2801;50.972;7.856;2023-02-28T16:28:31;5.23;;;3.53;;
5555;SDS011;2801;50.972;7.856;2023-02-28T16:31:03;4.80;;;3.03;;
5555;SDS011;2801;50.972;7.856;2023-02-28T16:33:33;5.03;;;3.70;;
5555;SDS011;2801;50.972;7.856;2023-02-28T16:36:00;5.60;;;3.00;;
5555;SDS011;2801;50.972;7.856;2023-02-28T16:38:28;4.97;;;3.00;;
5555;SDS011;2801;50.972;7.856;2023-02-28T16:40:55;7.10;;;4.57;;
5555;SDS011;2801;50.972;7.856;2023-02-28T16:43:25;6.40;;;4.10;;
5555;SDS011;2801;50.972;7.856;2023-02-28T16:45:54;9.00;;;4.00;;
5555;SDS011;2801;50.972;7.856;2023-02-28T16:48:26;5.43;;;3.73;;
5555;SDS011;2801;50.972;7.856;2023-02-28T16:50:53;5.87;;;4.00;;
5555;SDS011;2801;50.972;7.856;2023-02-28T16:53:20;8.27;;;4.27;;
5555;SDS011;2801;50.972;7.856;2023-02-28T16:55:47;6.13;;;4.30;;
5555;SDS011;2801;50.972;7.856;2023-02-28T16:58:14;9.00;;;4.00;;
5555;SDS011;2801;50.972;7.856;2023-02-28T17:00:43;6.40;;;4.20;;
5555;SDS011;2801;50.972;7.856;2023-02-28T17:03:14;6.57;;;4.80;;
5555;SDS011;2801;50.972;7.856;2023-02-28T17:05:58;7.17;;;4.40;;
5555;SDS011;2801;50.972;7.856;2023-02-28T17:08:26;6.73;;;4.40;;
5555;SDS011;2801;50.972;7.856;2023-02-28T17:10:55;5.37;;;4.07;;
5555;SDS011;2801;50.972;7.856;2023-02-28T17:13:22;6.13;;;4.67;;
5555;SDS011;2801;50.972;7.856;2023-02-28T17:15:49;6.70;;;4.57;;
5555;SDS011;2801;50.972;7.856;2023-02-28T17:18:17;8.57;;;4.93;;
5555;SDS011;2801;50.972;7.856;2023-02-28T17:20:47;10.83;;;5.87;;
5555;SDS011;2801;50.972;7.856;2023-02-28T17:23:14;9.80;;;5.00;;
5555;SDS011;2801;50.972;7.856;2023-02-28T17:25:41;6.20;;;3.97;;
5555;SDS011;2801;50.972;7.856;2023-02-28T17:28:22;9.67;;;5.60;;
5555;SDS011;2801;50.972;7.856;2023-02-28T17:30:49;8.60;;;5.23;;
5555;SDS011;2801;50.972;7.856;2023-02-28T17:33:16;10.20;;;5.00;;
5555;SDS011;2801;50.972;7.856;2023-02-28T17:35:43;11.07;;;6.47;;
5555;SDS011;2801;50.972;7.856;2023-02-28T17:38:19;14.83;;;8.00;;
5555;SDS011;2801;50.972;7.856;2023-02-28T17:40:48;9.23;;;5.70;;
5555;SDS011;2801;50.972;7.856;2023-02-28T17:43:15;8.20;;;5.17;;
5555;SDS011;2801;50.972;7.856;2023-02-28T17:45:42;15.23;;;6.17;;
5555;SDS011;2801;50.972;7.856;2023-02-28T17:48:10;12.37;;;7.90;;
5555;SDS011;2801;50.972;7.856;2023-02-28T17:50:42;16.80;;;8.67;;
5555;SDS011;2801;50.972;7.856;2023-02-28T17:53:09;16.03;;;8.87;;
5555;SDS011;2801;50.972;7.856;2023-02-28T17:55:36;13.40;;;8.50;;
5555;SDS011;2801;50.972;7.856;2023-02-28T17:58:03;9.73;;;5.67;;
5555;SDS011;2801;50.972;7.856;2023-02-28T18:00:30;7.37;;;4.53;;
5555;SDS011;2801;50.972;7.856;2023-02-28T18:02:59;14.20;;;8.53;;
5555;SDS011;2801;50.972;7.856;2023-02-28T18:05:26;10.03;;;5.97;;
5555;SDS011;2801;50.972;7.856;2023-02-28T18:07:53;10.73;;;6.70;;
5555;SDS011;2801;50.972;7.856;2023-02-28T18:10:20;6.27;;;4.73;;
5555;SDS011;2801;50.972;7.856;2023-02-28T18:12:48;11.60;;;6.50;;
5555;SDS011;2801;50.972;7.856;2023-02-28T18:15:17;9.47;;;5.13;;
5555;SDS011;2801;50.972;7.856;2023-02-28T18:17:47;12.17;;;5.67;;